KDTL

Detroit Lakes-Wething Field Airport

Detroit Lakes, Minnesota, USA
METAR KDTL 200055Z AUTO 29009KT 10SM CLR 01/00 A2959 RMK AO2
Observed Flight Rules
Jan-20 @ 00:55 UTC (30 minutes ago) Visual Flight Rules
Wind Visibility Clouds
290° at 9 knots 10 miles
  • Clear skies
Temperatures Readings
Current 1°C / 34°F
Dewpoint 0°C / 32°F
Humidity 93%
Altimeter 29.59" Hg
Pressure 1002 hPa
Elevation 426
METAR KDTL 200055Z AUTO 29009KT 10SM CLR 01/00 A2959 RMK AO2
Observed Flight Rules
Jan-20 @ 00:55 UTC
(30 minutes ago)
VFR
Wind Visibility
290° at 9 knots 10 miles
Clouds
  • Clear skies
Temperature Dewpoint
1°C / 34°F 0°C / 32°F
Humidity Altimeter Pressure
93% 29.59" Hg 1002 hPa